This is the latest recevied weather packets stored in our database for station/object DO6WO-10. If no packets are shown the sender has not sent any weather packets the latest 10 day(s).
| Time | Temp. | Humidity | Pressure | Rain* | Wind** | Luminosity | Snow |
|---|---|---|---|---|---|---|---|
| 1777702395 | 11.67° C | 37% | 1030 hPa | - | - | - | - |
| 1777699695 | 8.89° C | 37% | 1030.3 hPa | - | - | - | - |
| 1777696995 | 7.78° C | 37% | 1030.2 hPa | - | - | - | - |
| 1777694297 | 7.78° C | 38% | 1030 hPa | - | - | - | - |
| 1777691595 | 8.89° C | 36% | 1029.8 hPa | - | - | - | - |
| 1777688895 | 8.89° C | 37% | 1029.9 hPa | - | - | - | - |
| 1777686196 | 10° C | 36% | 1029.9 hPa | - | - | - | - |
| 1777683496 | 10° C | 36% | 1030.1 hPa | - | - | - | - |
| 1777680796 | 11.11° C | 34% | 1030.1 hPa | - | - | - | - |
| 1777678096 | 11.11° C | 35% | 1030.2 hPa | - | - | - | - |
| 1777675394 | 11.67° C | 34% | 1030.3 hPa | - | - | - | - |
| 1777672694 | 12.22° C | 34% | 1030.2 hPa | - | - | - | - |
| 1777669996 | 13.33° C | 32% | 1030.1 hPa | - | - | - | - |
| 1777667296 | 13.89° C | 31% | 1030.2 hPa | - | - | - | - |
| 1777664596 | 15.56° C | 30% | 1029.9 hPa | - | - | - | - |
| 1777661896 | 16.11° C | 29% | 1029.5 hPa | - | - | - | - |
| 1777659196 | 17.78° C | 26% | 1029 hPa | - | - | - | - |
| 1777656496 | 18.89° C | 26% | 1028.8 hPa | - | - | - | - |
| 1777653796 | 19.44° C | 24% | 1028.7 hPa | - | - | - | - |
| 1777651095 | 20° C | 24% | 1029 hPa | - | - | - | - |
| 1777648395 | 20.56° C | 23% | 1029 hPa | - | - | - | - |
| 1777645695 | 21.11° C | 23% | 1029.2 hPa | - | - | - | - |
| 1777642995 | 22.78° C | 23% | 1029.3 hPa | - | - | - | - |
| 1777640301 | 21.67° C | 23% | 1029.9 hPa | - | - | - | - |
| 1777640295 | 21.67° C | 23% | 1029.9 hPa | - | - | - | - |
* Rain since midnight (hover to see other rain measurements)
** Current wind speed in m/s (hover to see current wind gust speed)